sensor_id;sensor_type;location;lat;lon;timestamp;P1;durP1;ratioP1;P2;durP2;ratioP2
61358;SDS011;47228;46.762;23.598;2023-02-28T00:01:36;14.20;;;10.70;;
61358;SDS011;47228;46.762;23.598;2023-02-28T00:04:04;17.30;;;11.90;;
61358;SDS011;47228;46.762;23.598;2023-02-28T00:06:32;15.90;;;10.50;;
61358;SDS011;47228;46.762;23.598;2023-02-28T00:09:00;17.70;;;12.00;;
61358;SDS011;47228;46.762;23.598;2023-02-28T00:11:28;18.30;;;13.30;;
61358;SDS011;47228;46.762;23.598;2023-02-28T00:13:57;19.20;;;13.30;;
61358;SDS011;47228;46.762;23.598;2023-02-28T00:16:26;18.00;;;12.10;;
61358;SDS011;47228;46.762;23.598;2023-02-28T00:18:54;17.90;;;12.00;;
61358;SDS011;47228;46.762;23.598;2023-02-28T00:21:22;18.10;;;12.10;;
61358;SDS011;47228;46.762;23.598;2023-02-28T00:23:50;18.20;;;11.60;;
61358;SDS011;47228;46.762;23.598;2023-02-28T00:26:18;17.00;;;12.20;;
61358;SDS011;47228;46.762;23.598;2023-02-28T00:28:48;18.70;;;13.10;;
61358;SDS011;47228;46.762;23.598;2023-02-28T00:31:16;17.60;;;12.30;;
61358;SDS011;47228;46.762;23.598;2023-02-28T00:33:44;18.00;;;12.50;;
61358;SDS011;47228;46.762;23.598;2023-02-28T00:36:12;18.20;;;12.00;;
61358;SDS011;47228;46.762;23.598;2023-02-28T00:38:40;19.70;;;12.50;;
61358;SDS011;47228;46.762;23.598;2023-02-28T00:41:09;17.80;;;12.20;;
61358;SDS011;47228;46.762;23.598;2023-02-28T00:43:37;18.60;;;12.80;;
61358;SDS011;47228;46.762;23.598;2023-02-28T00:46:07;18.60;;;12.70;;
61358;SDS011;47228;46.762;23.598;2023-02-28T00:48:35;18.20;;;12.70;;
61358;SDS011;47228;46.762;23.598;2023-02-28T00:51:04;20.80;;;14.10;;
61358;SDS011;47228;46.762;23.598;2023-02-28T00:53:32;18.60;;;12.60;;
61358;SDS011;47228;46.762;23.598;2023-02-28T00:56:00;18.60;;;12.80;;
61358;SDS011;47228;46.762;23.598;2023-02-28T00:58:28;19.30;;;12.50;;
61358;SDS011;47228;46.762;23.598;2023-02-28T01:00:56;18.90;;;13.00;;
61358;SDS011;47228;46.762;23.598;2023-02-28T01:03:24;19.40;;;12.40;;
61358;SDS011;47228;46.762;23.598;2023-02-28T01:05:52;19.20;;;13.10;;
61358;SDS011;47228;46.762;23.598;2023-02-28T01:08:20;20.50;;;13.80;;
61358;SDS011;47228;46.762;23.598;2023-02-28T01:10:49;21.60;;;13.50;;
61358;SDS011;47228;46.762;23.598;2023-02-28T01:13:17;18.90;;;12.90;;
61358;SDS011;47228;46.762;23.598;2023-02-28T01:15:50;20.70;;;12.40;;
61358;SDS011;47228;46.762;23.598;2023-02-28T01:18:20;17.00;;;11.80;;
61358;SDS011;47228;46.762;23.598;2023-02-28T01:20:49;16.70;;;12.00;;
61358;SDS011;47228;46.762;23.598;2023-02-28T01:23:19;16.80;;;11.40;;
61358;SDS011;47228;46.762;23.598;2023-02-28T01:25:50;15.20;;;11.10;;
61358;SDS011;47228;46.762;23.598;2023-02-28T01:28:19;15.80;;;10.60;;
61358;SDS011;47228;46.762;23.598;2023-02-28T01:30:48;16.90;;;11.90;;
61358;SDS011;47228;46.762;23.598;2023-02-28T01:33:17;14.50;;;10.40;;
61358;SDS011;47228;46.762;23.598;2023-02-28T01:35:45;13.60;;;9.90;;
61358;SDS011;47228;46.762;23.598;2023-02-28T01:38:13;16.20;;;11.10;;
61358;SDS011;47228;46.762;23.598;2023-02-28T01:40:49;16.40;;;11.50;;
61358;SDS011;47228;46.762;23.598;2023-02-28T01:45:55;13.50;;;9.80;;
61358;SDS011;47228;46.762;23.598;2023-02-28T01:48:28;15.60;;;11.00;;
61358;SDS011;47228;46.762;23.598;2023-02-28T01:51:04;16.90;;;11.00;;
61358;SDS011;47228;46.762;23.598;2023-02-28T01:53:37;14.90;;;10.70;;
61358;SDS011;47228;46.762;23.598;2023-02-28T01:56:10;15.00;;;10.80;;
61358;SDS011;47228;46.762;23.598;2023-02-28T01:58:41;14.80;;;10.90;;
61358;SDS011;47228;46.762;23.598;2023-02-28T02:01:09;16.20;;;11.10;;
61358;SDS011;47228;46.762;23.598;2023-02-28T02:03:36;15.20;;;10.90;;
61358;SDS011;47228;46.762;23.598;2023-02-28T02:06:04;17.30;;;11.70;;
61358;SDS011;47228;46.762;23.598;2023-02-28T02:08:32;19.20;;;12.60;;
61358;SDS011;47228;46.762;23.598;2023-02-28T02:11:01;16.50;;;12.30;;
61358;SDS011;47228;46.762;23.598;2023-02-28T02:16:47;17.50;;;12.20;;
61358;SDS011;47228;46.762;23.598;2023-02-28T02:19:28;16.10;;;11.60;;
61358;SDS011;47228;46.762;23.598;2023-02-28T02:44:27;15.30;;;11.40;;
61358;SDS011;47228;46.762;23.598;2023-02-28T02:47:10;16.30;;;11.90;;
61358;SDS011;47228;46.762;23.598;2023-02-28T02:49:44;17.30;;;12.10;;
61358;SDS011;47228;46.762;23.598;2023-02-28T02:52:18;19.20;;;12.80;;
61358;SDS011;47228;46.762;23.598;2023-02-28T02:54:50;15.70;;;11.00;;
61358;SDS011;47228;46.762;23.598;2023-02-28T02:57:25;18.00;;;12.30;;
61358;SDS011;47228;46.762;23.598;2023-02-28T02:59:59;16.80;;;11.20;;
61358;SDS011;47228;46.762;23.598;2023-02-28T03:02:32;16.50;;;10.80;;
61358;SDS011;47228;46.762;23.598;2023-02-28T03:05:07;16.90;;;11.70;;
61358;SDS011;47228;46.762;23.598;2023-02-28T03:07:40;16.30;;;10.80;;
61358;SDS011;47228;46.762;23.598;2023-02-28T03:13:03;18.20;;;12.00;;
61358;SDS011;47228;46.762;23.598;2023-02-28T03:23:42;16.60;;;12.10;;
61358;SDS011;47228;46.762;23.598;2023-02-28T03:26:25;15.40;;;10.70;;
61358;SDS011;47228;46.762;23.598;2023-02-28T03:29:05;16.00;;;10.60;;
61358;SDS011;47228;46.762;23.598;2023-02-28T03:31:58;16.90;;;12.00;;
61358;SDS011;47228;46.762;23.598;2023-02-28T03:34:34;17.10;;;11.30;;
61358;SDS011;47228;46.762;23.598;2023-02-28T03:37:15;16.70;;;11.10;;
61358;SDS011;47228;46.762;23.598;2023-02-28T03:40:07;14.80;;;10.10;;
61358;SDS011;47228;46.762;23.598;2023-02-28T03:43:03;14.70;;;9.90;;
61358;SDS011;47228;46.762;23.598;2023-02-28T03:45:36;14.70;;;10.30;;
61358;SDS011;47228;46.762;23.598;2023-02-28T03:48:15;15.20;;;10.40;;
61358;SDS011;47228;46.762;23.598;2023-02-28T03:50:47;17.20;;;11.10;;
61358;SDS011;47228;46.762;23.598;2023-02-28T03:53:25;14.90;;;10.80;;
61358;SDS011;47228;46.762;23.598;2023-02-28T03:56:02;13.00;;;9.30;;
61358;SDS011;47228;46.762;23.598;2023-02-28T03:58:51;13.60;;;9.80;;
61358;SDS011;47228;46.762;23.598;2023-02-28T04:01:26;13.70;;;9.70;;
61358;SDS011;47228;46.762;23.598;2023-02-28T04:04:00;15.00;;;9.90;;
61358;SDS011;47228;46.762;23.598;2023-02-28T04:06:29;16.70;;;11.00;;
61358;SDS011;47228;46.762;23.598;2023-02-28T04:08:59;16.80;;;11.30;;
61358;SDS011;47228;46.762;23.598;2023-02-28T04:11:34;15.40;;;10.40;;
61358;SDS011;47228;46.762;23.598;2023-02-28T04:14:05;14.50;;;9.80;;
61358;SDS011;47228;46.762;23.598;2023-02-28T04:16:36;14.20;;;10.20;;
61358;SDS011;47228;46.762;23.598;2023-02-28T04:19:06;15.20;;;10.40;;
61358;SDS011;47228;46.762;23.598;2023-02-28T04:21:37;14.90;;;10.60;;
61358;SDS011;47228;46.762;23.598;2023-02-28T04:24:07;16.20;;;11.30;;
61358;SDS011;47228;46.762;23.598;2023-02-28T04:26:43;16.90;;;11.60;;
61358;SDS011;47228;46.762;23.598;2023-02-28T04:29:14;15.80;;;10.80;;
61358;SDS011;47228;46.762;23.598;2023-02-28T04:31:46;16.10;;;11.30;;
61358;SDS011;47228;46.762;23.598;2023-02-28T04:34:15;14.80;;;10.40;;
61358;SDS011;47228;46.762;23.598;2023-02-28T04:36:44;15.20;;;10.40;;
61358;SDS011;47228;46.762;23.598;2023-02-28T04:39:13;15.50;;;10.60;;
61358;SDS011;47228;46.762;23.598;2023-02-28T04:41:42;16.50;;;11.10;;
61358;SDS011;47228;46.762;23.598;2023-02-28T04:44:10;16.50;;;11.30;;
61358;SDS011;47228;46.762;23.598;2023-02-28T04:46:38;17.60;;;11.70;;
61358;SDS011;47228;46.762;23.598;2023-02-28T04:49:06;18.70;;;12.20;;
61358;SDS011;47228;46.762;23.598;2023-02-28T04:51:35;19.40;;;12.50;;
61358;SDS011;47228;46.762;23.598;2023-02-28T04:54:03;19.10;;;12.00;;
61358;SDS011;47228;46.762;23.598;2023-02-28T04:56:31;20.60;;;13.20;;
61358;SDS011;47228;46.762;23.598;2023-02-28T04:58:59;24.00;;;14.10;;
61358;SDS011;47228;46.762;23.598;2023-02-28T05:01:28;21.80;;;13.50;;
61358;SDS011;47228;46.762;23.598;2023-02-28T05:04:01;27.60;;;15.00;;
61358;SDS011;47228;46.762;23.598;2023-02-28T05:06:31;24.60;;;14.00;;
61358;SDS011;47228;46.762;23.598;2023-02-28T05:09:00;25.80;;;15.20;;
61358;SDS011;47228;46.762;23.598;2023-02-28T05:11:32;27.60;;;14.90;;
61358;SDS011;47228;46.762;23.598;2023-02-28T05:14:03;28.60;;;15.30;;
61358;SDS011;47228;46.762;23.598;2023-02-28T05:16:33;31.80;;;17.00;;
61358;SDS011;47228;46.762;23.598;2023-02-28T05:19:01;30.40;;;16.10;;
61358;SDS011;47228;46.762;23.598;2023-02-28T05:24:00;28.30;;;15.70;;
61358;SDS011;47228;46.762;23.598;2023-02-28T05:26:30;26.70;;;15.20;;
61358;SDS011;47228;46.762;23.598;2023-02-28T05:29:02;29.40;;;16.00;;
61358;SDS011;47228;46.762;23.598;2023-02-28T05:31:30;27.70;;;15.80;;
61358;SDS011;47228;46.762;23.598;2023-02-28T05:33:58;27.20;;;15.60;;
61358;SDS011;47228;46.762;23.598;2023-02-28T05:36:26;34.30;;;16.90;;
61358;SDS011;47228;46.762;23.598;2023-02-28T05:38:54;30.30;;;16.10;;
61358;SDS011;47228;46.762;23.598;2023-02-28T05:41:22;29.10;;;16.10;;
61358;SDS011;47228;46.762;23.598;2023-02-28T05:43:50;32.20;;;17.70;;
61358;SDS011;47228;46.762;23.598;2023-02-28T05:46:19;33.00;;;17.50;;
61358;SDS011;47228;46.762;23.598;2023-02-28T05:48:47;29.40;;;16.40;;
61358;SDS011;47228;46.762;23.598;2023-02-28T05:51:16;29.50;;;17.20;;
61358;SDS011;47228;46.762;23.598;2023-02-28T05:53:45;29.20;;;16.40;;
61358;SDS011;47228;46.762;23.598;2023-02-28T05:56:13;29.10;;;16.60;;
61358;SDS011;47228;46.762;23.598;2023-02-28T05:58:41;29.10;;;16.80;;
61358;SDS011;47228;46.762;23.598;2023-02-28T06:01:19;26.50;;;15.80;;
61358;SDS011;47228;46.762;23.598;2023-02-28T06:04:05;23.10;;;14.60;;
61358;SDS011;47228;46.762;23.598;2023-02-28T06:06:46;27.20;;;17.00;;
61358;SDS011;47228;46.762;23.598;2023-02-28T06:09:15;23.80;;;14.20;;
61358;SDS011;47228;46.762;23.598;2023-02-28T06:11:43;24.90;;;15.00;;
61358;SDS011;47228;46.762;23.598;2023-02-28T06:14:15;22.10;;;13.50;;
61358;SDS011;47228;46.762;23.598;2023-02-28T06:16:45;19.20;;;12.50;;
61358;SDS011;47228;46.762;23.598;2023-02-28T06:19:13;24.10;;;14.00;;
61358;SDS011;47228;46.762;23.598;2023-02-28T06:21:42;21.60;;;13.20;;
61358;SDS011;47228;46.762;23.598;2023-02-28T06:24:11;24.90;;;14.70;;
61358;SDS011;47228;46.762;23.598;2023-02-28T06:26:39;24.80;;;14.20;;
61358;SDS011;47228;46.762;23.598;2023-02-28T06:29:06;24.20;;;14.00;;
61358;SDS011;47228;46.762;23.598;2023-02-28T06:31:35;29.60;;;17.20;;
61358;SDS011;47228;46.762;23.598;2023-02-28T06:34:03;32.90;;;18.40;;
61358;SDS011;47228;46.762;23.598;2023-02-28T06:36:32;34.40;;;19.10;;
61358;SDS011;47228;46.762;23.598;2023-02-28T06:39:00;32.10;;;18.80;;
61358;SDS011;47228;46.762;23.598;2023-02-28T06:41:28;29.30;;;17.80;;
61358;SDS011;47228;46.762;23.598;2023-02-28T06:44:05;32.10;;;18.40;;
61358;SDS011;47228;46.762;23.598;2023-02-28T06:46:39;32.30;;;18.10;;
61358;SDS011;47228;46.762;23.598;2023-02-28T06:49:08;30.40;;;18.10;;
61358;SDS011;47228;46.762;23.598;2023-02-28T06:51:37;34.10;;;19.60;;
61358;SDS011;47228;46.762;23.598;2023-02-28T06:54:09;31.60;;;18.30;;
61358;SDS011;47228;46.762;23.598;2023-02-28T06:56:37;29.80;;;17.40;;
61358;SDS011;47228;46.762;23.598;2023-02-28T06:59:05;30.20;;;17.20;;
61358;SDS011;47228;46.762;23.598;2023-02-28T07:01:33;30.00;;;16.90;;
61358;SDS011;47228;46.762;23.598;2023-02-28T07:04:01;30.70;;;17.30;;
61358;SDS011;47228;46.762;23.598;2023-02-28T07:06:29;31.00;;;17.80;;
61358;SDS011;47228;46.762;23.598;2023-02-28T07:08:58;27.10;;;16.60;;
61358;SDS011;47228;46.762;23.598;2023-02-28T07:11:27;25.90;;;16.50;;
61358;SDS011;47228;46.762;23.598;2023-02-28T07:13:56;30.60;;;18.50;;
61358;SDS011;47228;46.762;23.598;2023-02-28T07:16:25;29.80;;;17.90;;
61358;SDS011;47228;46.762;23.598;2023-02-28T07:18:53;29.60;;;19.10;;
61358;SDS011;47228;46.762;23.598;2023-02-28T07:21:21;30.40;;;18.40;;
61358;SDS011;47228;46.762;23.598;2023-02-28T07:23:50;29.80;;;18.30;;
61358;SDS011;47228;46.762;23.598;2023-02-28T07:26:19;33.20;;;19.20;;
61358;SDS011;47228;46.762;23.598;2023-02-28T07:28:48;29.50;;;18.40;;
61358;SDS011;47228;46.762;23.598;2023-02-28T07:31:17;32.40;;;19.40;;
61358;SDS011;47228;46.762;23.598;2023-02-28T07:33:46;34.10;;;21.10;;
61358;SDS011;47228;46.762;23.598;2023-02-28T07:36:15;33.80;;;21.00;;
61358;SDS011;47228;46.762;23.598;2023-02-28T07:38:46;30.00;;;19.70;;
61358;SDS011;47228;46.762;23.598;2023-02-28T07:41:18;29.10;;;18.10;;
61358;SDS011;47228;46.762;23.598;2023-02-28T07:43:48;26.20;;;17.30;;
61358;SDS011;47228;46.762;23.598;2023-02-28T07:46:16;28.20;;;17.30;;
61358;SDS011;47228;46.762;23.598;2023-02-28T07:48:45;27.50;;;16.80;;
61358;SDS011;47228;46.762;23.598;2023-02-28T07:51:12;28.20;;;18.70;;
61358;SDS011;47228;46.762;23.598;2023-02-28T07:53:40;29.90;;;18.40;;
61358;SDS011;47228;46.762;23.598;2023-02-28T07:56:08;26.20;;;17.70;;
61358;SDS011;47228;46.762;23.598;2023-02-28T07:58:38;26.30;;;16.70;;
61358;SDS011;47228;46.762;23.598;2023-02-28T08:01:07;28.10;;;17.80;;
61358;SDS011;47228;46.762;23.598;2023-02-28T08:03:36;29.10;;;18.50;;
61358;SDS011;47228;46.762;23.598;2023-02-28T08:06:05;25.30;;;16.50;;
61358;SDS011;47228;46.762;23.598;2023-02-28T08:08:36;32.60;;;20.10;;
61358;SDS011;47228;46.762;23.598;2023-02-28T08:11:03;30.20;;;18.70;;
61358;SDS011;47228;46.762;23.598;2023-02-28T08:13:31;30.20;;;18.70;;
61358;SDS011;47228;46.762;23.598;2023-02-28T08:16:00;30.10;;;19.60;;
61358;SDS011;47228;46.762;23.598;2023-02-28T08:18:29;26.60;;;17.00;;
61358;SDS011;47228;46.762;23.598;2023-02-28T08:20:57;28.90;;;17.30;;
61358;SDS011;47228;46.762;23.598;2023-02-28T08:23:26;28.80;;;18.40;;
61358;SDS011;47228;46.762;23.598;2023-02-28T08:25:55;32.40;;;20.00;;
61358;SDS011;47228;46.762;23.598;2023-02-28T08:28:23;35.60;;;22.80;;
61358;SDS011;47228;46.762;23.598;2023-02-28T08:30:54;32.30;;;21.10;;
61358;SDS011;47228;46.762;23.598;2023-02-28T08:33:23;32.30;;;20.10;;
61358;SDS011;47228;46.762;23.598;2023-02-28T08:35:53;35.10;;;21.00;;
61358;SDS011;47228;46.762;23.598;2023-02-28T08:38:22;32.70;;;21.60;;
61358;SDS011;47228;46.762;23.598;2023-02-28T08:40:57;35.20;;;21.60;;
61358;SDS011;47228;46.762;23.598;2023-02-28T08:43:26;34.40;;;21.40;;
61358;SDS011;47228;46.762;23.598;2023-02-28T08:45:56;38.10;;;22.50;;
61358;SDS011;47228;46.762;23.598;2023-02-28T08:48:25;32.80;;;21.70;;
61358;SDS011;47228;46.762;23.598;2023-02-28T08:51:04;34.70;;;21.50;;
61358;SDS011;47228;46.762;23.598;2023-02-28T08:53:36;33.70;;;21.20;;
61358;SDS011;47228;46.762;23.598;2023-02-28T08:56:06;38.30;;;23.40;;
61358;SDS011;47228;46.762;23.598;2023-02-28T08:58:36;37.80;;;23.20;;
61358;SDS011;47228;46.762;23.598;2023-02-28T09:01:10;37.50;;;24.40;;
61358;SDS011;47228;46.762;23.598;2023-02-28T09:03:40;37.60;;;24.30;;
61358;SDS011;47228;46.762;23.598;2023-02-28T09:06:10;39.60;;;24.90;;
61358;SDS011;47228;46.762;23.598;2023-02-28T09:08:39;36.40;;;23.60;;
61358;SDS011;47228;46.762;23.598;2023-02-28T09:11:07;38.00;;;23.50;;
61358;SDS011;47228;46.762;23.598;2023-02-28T09:13:36;39.00;;;24.60;;
61358;SDS011;47228;46.762;23.598;2023-02-28T09:16:06;39.00;;;24.80;;
61358;SDS011;47228;46.762;23.598;2023-02-28T09:18:36;37.90;;;24.10;;
61358;SDS011;47228;46.762;23.598;2023-02-28T09:21:07;37.60;;;23.30;;
61358;SDS011;47228;46.762;23.598;2023-02-28T09:23:36;38.50;;;24.00;;
61358;SDS011;47228;46.762;23.598;2023-02-28T09:26:07;36.20;;;22.00;;
61358;SDS011;47228;46.762;23.598;2023-02-28T09:28:35;37.80;;;21.80;;
61358;SDS011;47228;46.762;23.598;2023-02-28T09:31:03;30.30;;;18.90;;
61358;SDS011;47228;46.762;23.598;2023-02-28T09:33:32;33.10;;;19.80;;
61358;SDS011;47228;46.762;23.598;2023-02-28T09:36:02;30.00;;;19.00;;
61358;SDS011;47228;46.762;23.598;2023-02-28T09:38:31;31.90;;;19.80;;
61358;SDS011;47228;46.762;23.598;2023-02-28T09:41:00;33.40;;;20.90;;
61358;SDS011;47228;46.762;23.598;2023-02-28T09:43:38;35.00;;;19.80;;
61358;SDS011;47228;46.762;23.598;2023-02-28T09:46:17;34.50;;;20.80;;
61358;SDS011;47228;46.762;23.598;2023-02-28T09:48:46;34.10;;;20.70;;
61358;SDS011;47228;46.762;23.598;2023-02-28T09:54:09;32.50;;;20.00;;
61358;SDS011;47228;46.762;23.598;2023-02-28T09:56:57;32.90;;;20.50;;
61358;SDS011;47228;46.762;23.598;2023-02-28T10:04:54;39.70;;;21.60;;
61358;SDS011;47228;46.762;23.598;2023-02-28T10:10:19;42.30;;;22.50;;
61358;SDS011;47228;46.762;23.598;2023-02-28T10:12:54;38.90;;;23.50;;
61358;SDS011;47228;46.762;23.598;2023-02-28T10:15:26;50.70;;;24.30;;
61358;SDS011;47228;46.762;23.598;2023-02-28T10:17:59;42.90;;;24.10;;
61358;SDS011;47228;46.762;23.598;2023-02-28T10:20:39;40.90;;;23.10;;
61358;SDS011;47228;46.762;23.598;2023-02-28T10:25:53;43.50;;;23.70;;
61358;SDS011;47228;46.762;23.598;2023-02-28T10:28:24;44.50;;;23.60;;
61358;SDS011;47228;46.762;23.598;2023-02-28T10:30:53;42.40;;;24.10;;
61358;SDS011;47228;46.762;23.598;2023-02-28T10:33:30;39.80;;;23.10;;
61358;SDS011;47228;46.762;23.598;2023-02-28T10:36:00;46.40;;;25.70;;
61358;SDS011;47228;46.762;23.598;2023-02-28T10:38:36;43.50;;;24.50;;
61358;SDS011;47228;46.762;23.598;2023-02-28T10:41:07;40.70;;;21.80;;
61358;SDS011;47228;46.762;23.598;2023-02-28T10:43:38;35.20;;;21.00;;
61358;SDS011;47228;46.762;23.598;2023-02-28T10:48:38;37.40;;;20.60;;
61358;SDS011;47228;46.762;23.598;2023-02-28T10:51:13;37.30;;;21.90;;
61358;SDS011;47228;46.762;23.598;2023-02-28T10:56:27;38.60;;;21.20;;
61358;SDS011;47228;46.762;23.598;2023-02-28T11:03:58;41.90;;;23.10;;
61358;SDS011;47228;46.762;23.598;2023-02-28T11:06:29;40.80;;;22.70;;
61358;SDS011;47228;46.762;23.598;2023-02-28T11:09:00;39.80;;;22.70;;
61358;SDS011;47228;46.762;23.598;2023-02-28T11:11:40;41.20;;;22.90;;
61358;SDS011;47228;46.762;23.598;2023-02-28T11:14:20;44.30;;;24.50;;
61358;SDS011;47228;46.762;23.598;2023-02-28T11:16:51;46.50;;;23.90;;
61358;SDS011;47228;46.762;23.598;2023-02-28T11:19:22;42.50;;;23.10;;
61358;SDS011;47228;46.762;23.598;2023-02-28T11:21:54;41.80;;;23.30;;
61358;SDS011;47228;46.762;23.598;2023-02-28T11:26:58;46.30;;;24.30;;
61358;SDS011;47228;46.762;23.598;2023-02-28T11:29:30;44.60;;;24.00;;
61358;SDS011;47228;46.762;23.598;2023-02-28T11:32:04;43.50;;;24.40;;
61358;SDS011;47228;46.762;23.598;2023-02-28T11:37:37;51.80;;;24.50;;
61358;SDS011;47228;46.762;23.598;2023-02-28T11:40:12;48.00;;;25.70;;
61358;SDS011;47228;46.762;23.598;2023-02-28T11:42:48;48.00;;;24.30;;
61358;SDS011;47228;46.762;23.598;2023-02-28T11:45:36;51.80;;;27.10;;
61358;SDS011;47228;46.762;23.598;2023-02-28T11:50:45;57.70;;;30.50;;
61358;SDS011;47228;46.762;23.598;2023-02-28T11:55:47;65.90;;;32.30;;
61358;SDS011;47228;46.762;23.598;2023-02-28T12:12:23;61.70;;;32.90;;
61358;SDS011;47228;46.762;23.598;2023-02-28T12:21:11;67.30;;;35.10;;
61358;SDS011;47228;46.762;23.598;2023-02-28T12:26:38;64.10;;;33.00;;
61358;SDS011;47228;46.762;23.598;2023-02-28T12:32:16;69.90;;;35.70;;
61358;SDS011;47228;46.762;23.598;2023-02-28T12:34:50;72.70;;;35.90;;
61358;SDS011;47228;46.762;23.598;2023-02-28T12:40:20;74.80;;;37.40;;
61358;SDS011;47228;46.762;23.598;2023-02-28T12:42:55;77.10;;;35.80;;
61358;SDS011;47228;46.762;23.598;2023-02-28T12:45:39;68.00;;;35.40;;
61358;SDS011;47228;46.762;23.598;2023-02-28T12:48:08;67.10;;;34.60;;
61358;SDS011;47228;46.762;23.598;2023-02-28T12:50:42;65.50;;;33.20;;
61358;SDS011;47228;46.762;23.598;2023-02-28T12:53:15;66.00;;;34.00;;
61358;SDS011;47228;46.762;23.598;2023-02-28T12:58:44;70.30;;;36.00;;
61358;SDS011;47228;46.762;23.598;2023-02-28T13:04:36;67.40;;;34.60;;
61358;SDS011;47228;46.762;23.598;2023-02-28T13:09:57;68.20;;;34.20;;
61358;SDS011;47228;46.762;23.598;2023-02-28T13:12:28;67.80;;;33.60;;
61358;SDS011;47228;46.762;23.598;2023-02-28T13:15:04;75.50;;;37.40;;
61358;SDS011;47228;46.762;23.598;2023-02-28T13:17:39;66.00;;;35.10;;
61358;SDS011;47228;46.762;23.598;2023-02-28T13:20:19;72.10;;;37.00;;
61358;SDS011;47228;46.762;23.598;2023-02-28T13:22:50;75.80;;;39.20;;
61358;SDS011;47228;46.762;23.598;2023-02-28T13:27:54;75.30;;;37.70;;
61358;SDS011;47228;46.762;23.598;2023-02-28T13:38:42;107.00;;;45.20;;
61358;SDS011;47228;46.762;23.598;2023-02-28T13:46:28;75.10;;;38.30;;
61358;SDS011;47228;46.762;23.598;2023-02-28T13:49:17;73.80;;;36.10;;
61358;SDS011;47228;46.762;23.598;2023-02-28T13:51:53;78.30;;;39.90;;
61358;SDS011;47228;46.762;23.598;2023-02-28T14:05:05;67.80;;;36.00;;
61358;SDS011;47228;46.762;23.598;2023-02-28T14:07:46;69.90;;;36.90;;
61358;SDS011;47228;46.762;23.598;2023-02-28T14:10:31;71.20;;;36.90;;
61358;SDS011;47228;46.762;23.598;2023-02-28T14:16:00;69.40;;;36.50;;
61358;SDS011;47228;46.762;23.598;2023-02-28T14:18:35;69.70;;;36.10;;
61358;SDS011;47228;46.762;23.598;2023-02-28T14:32:15;71.40;;;35.70;;
61358;SDS011;47228;46.762;23.598;2023-02-28T14:38:04;65.20;;;34.20;;
61358;SDS011;47228;46.762;23.598;2023-02-28T14:40:34;59.90;;;32.20;;
61358;SDS011;47228;46.762;23.598;2023-02-28T14:43:04;62.10;;;31.50;;
61358;SDS011;47228;46.762;23.598;2023-02-28T14:45:34;59.20;;;30.90;;
61358;SDS011;47228;46.762;23.598;2023-02-28T14:48:05;57.30;;;29.50;;
61358;SDS011;47228;46.762;23.598;2023-02-28T14:50:37;62.10;;;32.20;;
61358;SDS011;47228;46.762;23.598;2023-02-28T14:53:05;59.10;;;31.50;;
61358;SDS011;47228;46.762;23.598;2023-02-28T14:55:44;68.90;;;33.80;;
61358;SDS011;47228;46.762;23.598;2023-02-28T14:58:27;83.90;;;39.90;;
61358;SDS011;47228;46.762;23.598;2023-02-28T15:00:58;71.50;;;35.40;;
61358;SDS011;47228;46.762;23.598;2023-02-28T15:03:38;71.90;;;36.20;;
61358;SDS011;47228;46.762;23.598;2023-02-28T15:06:16;79.60;;;36.40;;
61358;SDS011;47228;46.762;23.598;2023-02-28T15:08:46;81.50;;;39.20;;
61358;SDS011;47228;46.762;23.598;2023-02-28T15:11:17;80.50;;;37.60;;
61358;SDS011;47228;46.762;23.598;2023-02-28T15:13:49;65.60;;;33.40;;
61358;SDS011;47228;46.762;23.598;2023-02-28T15:16:20;68.40;;;32.90;;
61358;SDS011;47228;46.762;23.598;2023-02-28T15:19:06;71.60;;;36.20;;
61358;SDS011;47228;46.762;23.598;2023-02-28T15:21:43;90.90;;;39.70;;
61358;SDS011;47228;46.762;23.598;2023-02-28T15:24:17;65.70;;;33.00;;
61358;SDS011;47228;46.762;23.598;2023-02-28T15:27:02;63.40;;;32.50;;
61358;SDS011;47228;46.762;23.598;2023-02-28T15:29:34;67.40;;;34.90;;
61358;SDS011;47228;46.762;23.598;2023-02-28T15:35:27;66.60;;;33.80;;
61358;SDS011;47228;46.762;23.598;2023-02-28T15:37:58;60.30;;;32.30;;
61358;SDS011;47228;46.762;23.598;2023-02-28T15:40:30;61.30;;;31.30;;
61358;SDS011;47228;46.762;23.598;2023-02-28T15:43:17;58.50;;;31.70;;
61358;SDS011;47228;46.762;23.598;2023-02-28T15:46:10;65.20;;;33.30;;
61358;SDS011;47228;46.762;23.598;2023-02-28T15:48:50;56.80;;;31.40;;
61358;SDS011;47228;46.762;23.598;2023-02-28T15:54:01;66.30;;;33.60;;
61358;SDS011;47228;46.762;23.598;2023-02-28T15:59:17;58.70;;;31.10;;
61358;SDS011;47228;46.762;23.598;2023-02-28T16:04:53;79.80;;;38.80;;
61358;SDS011;47228;46.762;23.598;2023-02-28T16:07:26;81.70;;;40.20;;
61358;SDS011;47228;46.762;23.598;2023-02-28T16:09:56;73.10;;;35.00;;
61358;SDS011;47228;46.762;23.598;2023-02-28T16:12:26;82.80;;;39.40;;
61358;SDS011;47228;46.762;23.598;2023-02-28T16:15:00;112.30;;;49.00;;
61358;SDS011;47228;46.762;23.598;2023-02-28T16:17:33;61.50;;;33.10;;
61358;SDS011;47228;46.762;23.598;2023-02-28T16:20:06;117.00;;;53.00;;
61358;SDS011;47228;46.762;23.598;2023-02-28T16:22:41;152.10;;;68.00;;
61358;SDS011;47228;46.762;23.598;2023-02-28T16:25:14;117.20;;;54.10;;
61358;SDS011;47228;46.762;23.598;2023-02-28T16:27:43;120.80;;;59.60;;
61358;SDS011;47228;46.762;23.598;2023-02-28T16:30:26;88.10;;;44.60;;
61358;SDS011;47228;46.762;23.598;2023-02-28T16:32:59;101.80;;;48.90;;
61358;SDS011;47228;46.762;23.598;2023-02-28T16:35:27;124.00;;;55.90;;
61358;SDS011;47228;46.762;23.598;2023-02-28T16:37:55;167.40;;;74.40;;
61358;SDS011;47228;46.762;23.598;2023-02-28T16:40:24;190.80;;;79.40;;
61358;SDS011;47228;46.762;23.598;2023-02-28T16:42:54;223.40;;;92.40;;
61358;SDS011;47228;46.762;23.598;2023-02-28T16:45:27;175.40;;;78.70;;
61358;SDS011;47228;46.762;23.598;2023-02-28T16:47:56;134.90;;;62.40;;
61358;SDS011;47228;46.762;23.598;2023-02-28T16:50:28;66.30;;;36.90;;
61358;SDS011;47228;46.762;23.598;2023-02-28T16:52:57;109.70;;;51.00;;
61358;SDS011;47228;46.762;23.598;2023-02-28T16:55:28;132.20;;;60.20;;
61358;SDS011;47228;46.762;23.598;2023-02-28T16:58:00;272.70;;;113.80;;
61358;SDS011;47228;46.762;23.598;2023-02-28T17:00:29;162.60;;;73.80;;
61358;SDS011;47228;46.762;23.598;2023-02-28T17:02:59;118.30;;;55.10;;
61358;SDS011;47228;46.762;23.598;2023-02-28T17:05:27;129.20;;;56.90;;
61358;SDS011;47228;46.762;23.598;2023-02-28T17:08:03;160.20;;;69.80;;
61358;SDS011;47228;46.762;23.598;2023-02-28T17:10:31;149.20;;;67.80;;
61358;SDS011;47228;46.762;23.598;2023-02-28T17:12:59;86.20;;;42.50;;
61358;SDS011;47228;46.762;23.598;2023-02-28T17:15:41;57.20;;;33.20;;
61358;SDS011;47228;46.762;23.598;2023-02-28T17:18:13;56.60;;;32.20;;
61358;SDS011;47228;46.762;23.598;2023-02-28T17:20:46;54.90;;;30.50;;
61358;SDS011;47228;46.762;23.598;2023-02-28T17:23:15;52.80;;;29.10;;
61358;SDS011;47228;46.762;23.598;2023-02-28T17:25:43;49.00;;;27.20;;